createdAt,value
2023-02-04T00:00:01.702Z,0
2023-02-04T00:01:01.418Z,0
2023-02-04T00:02:01.724Z,0
2023-02-04T00:03:01.953Z,0
2023-02-04T00:04:01.566Z,0
2023-02-04T00:05:01.575Z,0
2023-02-04T00:06:01.610Z,0
2023-02-04T00:07:01.460Z,0
2023-02-04T00:08:01.474Z,0
2023-02-04T00:09:01.430Z,0
2023-02-04T00:10:01.401Z,0
2023-02-04T00:11:01.375Z,0
2023-02-04T00:12:01.354Z,0
2023-02-04T00:13:01.264Z,0
2023-02-04T00:14:01.229Z,0
2023-02-04T00:15:01.223Z,0
2023-02-04T00:16:01.413Z,0
2023-02-04T00:17:01.148Z,0
2023-02-04T00:18:01.197Z,0
2023-02-04T00:19:01.105Z,0
2023-02-04T00:20:01.058Z,0
2023-02-04T00:21:01.006Z,0
2023-02-04T00:22:01.047Z,0
2023-02-04T00:23:00.940Z,0
2023-02-04T00:24:03.291Z,0
2023-02-04T00:25:00.881Z,0
2023-02-04T00:26:00.863Z,0
2023-02-04T00:27:00.559Z,0
2023-02-04T00:28:01.128Z,0
2023-02-04T00:29:00.556Z,0
2023-02-04T00:30:00.708Z,0
2023-02-04T00:31:00.798Z,0
2023-02-04T00:32:01.723Z,0
2023-02-04T00:33:00.394Z,0
2023-02-04T00:34:00.771Z,0
2023-02-04T00:35:00.576Z,0
2023-02-04T00:36:00.526Z,0
2023-02-04T00:37:00.514Z,0
2023-02-04T00:38:00.553Z,0
2023-02-04T00:39:00.422Z,0
2023-02-04T00:40:00.390Z,0
2023-02-04T00:41:00.371Z,0
2023-02-04T00:42:00.338Z,0
2023-02-04T00:43:00.299Z,0
2023-02-04T00:44:00.266Z,0
2023-02-04T00:45:00.255Z,0
2023-02-04T00:46:00.722Z,0
2023-02-04T00:46:59.952Z,0
2023-02-04T00:48:00.130Z,0
2023-02-04T00:49:00.109Z,0
2023-02-04T00:50:00.220Z,0
2023-02-04T00:51:00.035Z,0
2023-02-04T00:51:59.987Z,0
2023-02-04T00:52:59.968Z,0
2023-02-04T00:53:59.937Z,0
2023-02-04T00:54:59.906Z,0
2023-02-04T00:55:59.878Z,0
2023-02-04T00:56:59.836Z,0
2023-02-04T00:57:59.805Z,0
2023-02-04T00:58:59.763Z,0
2023-02-04T00:59:59.733Z,0
2023-02-04T01:01:00.179Z,0
2023-02-04T01:01:59.698Z,0
2023-02-04T01:03:00.051Z,0
2023-02-04T01:03:59.630Z,0
2023-02-04T01:04:59.570Z,0
2023-02-04T01:05:59.647Z,0
2023-02-04T01:06:59.529Z,0
2023-02-04T01:07:59.507Z,0
2023-02-04T01:08:59.470Z,0
2023-02-04T01:09:59.420Z,0
2023-02-04T01:10:59.377Z,0
2023-02-04T01:11:59.350Z,0
2023-02-04T01:12:59.520Z,0
2023-02-04T01:13:59.279Z,0
2023-02-04T01:14:59.045Z,0
2023-02-04T01:15:59.228Z,0
2023-02-04T01:16:59.393Z,0
2023-02-04T01:17:59.184Z,0
2023-02-04T01:18:59.163Z,0
2023-02-04T01:19:59.120Z,0
2023-02-04T01:20:59.053Z,0
2023-02-04T01:21:59.147Z,0
2023-02-04T01:22:59.016Z,0
2023-02-04T01:23:58.956Z,0
2023-02-04T01:24:58.949Z,0
2023-02-04T01:25:58.895Z,0
2023-02-04T01:26:58.870Z,0
2023-02-04T01:27:59.080Z,0
2023-02-04T01:28:58.798Z,0
2023-02-04T01:29:58.816Z,0
2023-02-04T01:30:59.045Z,0
2023-02-04T01:31:59.101Z,0
2023-02-04T01:32:58.694Z,0
2023-02-04T01:33:58.626Z,0
2023-02-04T01:35:00.128Z,0
2023-02-04T01:35:58.604Z,0
2023-02-04T01:36:58.559Z,0
2023-02-04T01:37:58.611Z,0
2023-02-04T01:38:58.488Z,0
2023-02-04T01:39:58.460Z,0
2023-02-04T01:40:58.399Z,0
2023-02-04T01:41:58.362Z,0
2023-02-04T01:42:58.089Z,0
2023-02-04T01:43:58.290Z,0
2023-02-04T01:44:58.052Z,0
2023-02-04T01:45:58.548Z,0
2023-02-04T01:46:57.957Z,0
2023-02-04T01:47:58.219Z,0
2023-02-04T01:48:58.164Z,0
2023-02-04T01:49:58.121Z,0
2023-02-04T01:50:58.116Z,0
2023-02-04T01:51:58.036Z,0
2023-02-04T01:52:58.015Z,0
2023-02-04T01:53:58.152Z,0
2023-02-04T01:54:57.953Z,0
2023-02-04T01:55:57.909Z,0
2023-02-04T01:56:57.885Z,0
2023-02-04T01:57:57.842Z,0
2023-02-04T01:58:57.809Z,0
2023-02-04T01:59:57.799Z,0
2023-02-04T02:00:57.938Z,0
2023-02-04T02:01:57.933Z,0
2023-02-04T02:02:57.694Z,0
2023-02-04T02:03:57.642Z,0
2023-02-04T02:04:57.620Z,0
2023-02-04T02:05:57.596Z,0
2023-02-04T02:06:57.602Z,0
2023-02-04T02:07:57.549Z,0
2023-02-04T02:08:57.533Z,0
2023-02-04T02:09:57.629Z,0
2023-02-04T02:10:57.419Z,0
2023-02-04T02:11:57.389Z,0
2023-02-04T02:12:57.380Z,0
2023-02-04T02:13:57.333Z,0
2023-02-04T02:14:57.285Z,0
2023-02-04T02:15:57.280Z,0
2023-02-04T02:16:58.012Z,0
2023-02-04T02:17:57.285Z,0
2023-02-04T02:18:57.171Z,0
2023-02-04T02:19:57.172Z,0
2023-02-04T02:20:57.096Z,0
2023-02-04T02:21:57.098Z,0
2023-02-04T02:22:57.051Z,0
2023-02-04T02:23:56.764Z,0
2023-02-04T02:24:56.958Z,0
2023-02-04T02:25:57.060Z,0
2023-02-04T02:26:56.675Z,0
2023-02-04T02:27:57.137Z,0
2023-02-04T02:28:56.878Z,0
2023-02-04T02:29:56.800Z,0
2023-02-04T02:30:57.552Z,0
2023-02-04T02:31:57.407Z,0
2023-02-04T02:32:56.719Z,0
2023-02-04T02:33:56.685Z,0
2023-02-04T02:34:56.638Z,0
2023-02-04T02:35:56.639Z,0
2023-02-04T02:36:56.581Z,0
2023-02-04T02:37:56.567Z,0
2023-02-04T02:38:56.544Z,0
2023-02-04T02:39:56.484Z,0
2023-02-04T02:40:56.456Z,0
2023-02-04T02:41:56.520Z,0
2023-02-04T02:42:56.386Z,0
2023-02-04T02:43:56.346Z,0
2023-02-04T02:44:56.385Z,0
2023-02-04T02:45:56.713Z,0
2023-02-04T02:46:56.266Z,0
2023-02-04T02:47:56.281Z,0
2023-02-04T02:48:56.183Z,0
2023-02-04T02:49:56.160Z,0
2023-02-04T02:50:56.104Z,0
2023-02-04T02:51:56.086Z,0
2023-02-04T02:52:56.105Z,0
2023-02-04T02:53:56.008Z,0
2023-02-04T02:54:56.041Z,0
2023-02-04T02:55:55.965Z,0
2023-02-04T02:56:55.955Z,0
2023-02-04T02:57:55.990Z,0
2023-02-04T02:58:55.857Z,0
2023-02-04T02:59:55.828Z,0
2023-02-04T03:00:56.023Z,0
2023-02-04T03:01:55.769Z,0
2023-02-04T03:02:55.942Z,0
2023-02-04T03:03:55.732Z,0
2023-02-04T03:04:55.665Z,0
2023-02-04T03:05:55.633Z,0
2023-02-04T03:06:55.579Z,0
2023-02-04T03:07:55.565Z,0
2023-02-04T03:08:55.552Z,0
2023-02-04T03:09:55.498Z,0
2023-02-04T03:10:55.281Z,0
2023-02-04T03:11:55.464Z,0
2023-02-04T03:12:55.396Z,0
2023-02-04T03:13:55.485Z,0
2023-02-04T03:14:55.337Z,0
2023-02-04T03:15:55.594Z,0
2023-02-04T03:16:55.261Z,0
2023-02-04T03:17:55.223Z,0
2023-02-04T03:18:55.190Z,0
2023-02-04T03:19:55.155Z,0
2023-02-04T03:20:55.138Z,0
2023-02-04T03:21:55.111Z,0
2023-02-04T03:22:55.101Z,0
2023-02-04T03:23:55.025Z,0
2023-02-04T03:24:55.003Z,0
2023-02-04T03:25:54.764Z,0
2023-02-04T03:26:55.049Z,0
2023-02-04T03:27:55.169Z,0
2023-02-04T03:28:54.886Z,0
2023-02-04T03:29:54.961Z,0
2023-02-04T03:30:55.419Z,0
2023-02-04T03:31:55.610Z,0
2023-02-04T03:32:54.740Z,0
2023-02-04T03:33:54.721Z,0
2023-02-04T03:34:54.683Z,0
2023-02-04T03:35:54.639Z,0
2023-02-04T03:36:54.676Z,0
2023-02-04T03:37:54.584Z,0
2023-02-04T03:38:54.567Z,0
2023-02-04T03:39:54.508Z,0
2023-02-04T03:40:54.522Z,0
2023-02-04T03:41:54.478Z,0
2023-02-04T03:42:54.475Z,0
2023-02-04T03:43:54.398Z,0
2023-02-04T03:44:54.356Z,0
2023-02-04T03:45:55.522Z,0
2023-02-04T03:46:54.285Z,0
2023-02-04T03:47:54.250Z,0
2023-02-04T03:48:54.228Z,0
2023-02-04T03:49:54.194Z,0
2023-02-04T03:50:54.165Z,0
2023-02-04T03:51:54.139Z,0
2023-02-04T03:52:54.102Z,0
2023-02-04T03:53:54.067Z,0
2023-02-04T03:54:53.781Z,0
2023-02-04T03:55:53.994Z,0
2023-02-04T03:56:53.967Z,0
2023-02-04T03:57:53.936Z,0
2023-02-04T03:58:53.911Z,0
2023-02-04T03:59:53.887Z,0
2023-02-04T04:00:53.861Z,0
2023-02-04T04:01:54.268Z,0
2023-02-04T04:02:54.265Z,0
2023-02-04T04:03:53.767Z,0
2023-02-04T04:04:53.714Z,0
2023-02-04T04:05:53.668Z,0
2023-02-04T04:06:53.654Z,0
2023-02-04T04:07:53.603Z,0
2023-02-04T04:08:53.598Z,0
2023-02-04T04:09:53.540Z,0
2023-02-04T04:10:53.519Z,0
2023-02-04T04:11:53.571Z,0
2023-02-04T04:12:53.457Z,0
2023-02-04T04:13:53.212Z,0
2023-02-04T04:14:53.391Z,0
2023-02-04T04:15:53.491Z,0
2023-02-04T04:16:53.318Z,0
2023-02-04T04:17:53.461Z,0
2023-02-04T04:18:53.254Z,0
2023-02-04T04:19:53.217Z,0
2023-02-04T04:20:53.190Z,0
2023-02-04T04:21:53.177Z,0
2023-02-04T04:22:53.103Z,0
2023-02-04T04:23:52.852Z,0
2023-02-04T04:24:53.042Z,0
2023-02-04T04:25:53.012Z,0
2023-02-04T04:26:52.995Z,0
2023-02-04T04:27:53.299Z,0
2023-02-04T04:28:52.940Z,0
2023-02-04T04:29:52.888Z,0
2023-02-04T04:30:53.199Z,0
2023-02-04T04:31:53.227Z,0
2023-02-04T04:32:52.807Z,0
2023-02-04T04:33:52.859Z,0
2023-02-04T04:34:52.751Z,0
2023-02-04T04:35:52.687Z,0
2023-02-04T04:36:52.659Z,0
2023-02-04T04:37:52.627Z,0
2023-02-04T04:38:52.592Z,0
2023-02-04T04:39:52.566Z,0
2023-02-04T04:40:52.534Z,0
2023-02-04T04:41:52.484Z,0
2023-02-04T04:42:52.454Z,0
2023-02-04T04:43:52.431Z,0
2023-02-04T04:44:52.417Z,0
2023-02-04T04:45:52.377Z,0
2023-02-04T04:46:52.690Z,0
2023-02-04T04:47:52.302Z,0
2023-02-04T04:48:52.253Z,0
2023-02-04T04:49:52.350Z,0
2023-02-04T04:50:52.185Z,0
2023-02-04T04:51:52.156Z,0
2023-02-04T04:52:52.126Z,0
2023-02-04T04:53:52.109Z,0
2023-02-04T04:54:52.059Z,0
2023-02-04T04:55:52.029Z,0
2023-02-04T04:56:51.986Z,0
2023-02-04T04:57:51.969Z,0
2023-02-04T04:58:51.961Z,0
2023-02-04T04:59:51.898Z,0
2023-02-04T05:00:52.160Z,0
2023-02-04T05:01:51.838Z,0
2023-02-04T05:02:51.822Z,0
2023-02-04T05:03:51.792Z,0
2023-02-04T05:04:52.056Z,0
2023-02-04T05:05:51.807Z,0
2023-02-04T05:06:51.801Z,0
2023-02-04T05:07:51.406Z,0
2023-02-04T05:08:51.619Z,0
2023-02-04T05:09:51.568Z,0
2023-02-04T05:10:51.559Z,0
2023-02-04T05:11:51.509Z,0
2023-02-04T05:12:51.473Z,0
2023-02-04T05:13:51.507Z,0
2023-02-04T05:14:51.417Z,0
2023-02-04T05:15:51.394Z,0
2023-02-04T05:16:51.490Z,0
2023-02-04T05:17:51.314Z,0
2023-02-04T05:18:51.081Z,0
2023-02-04T05:19:51.293Z,0
2023-02-04T05:20:51.224Z,0
2023-02-04T05:21:51.303Z,0
2023-02-04T05:22:51.166Z,0
2023-02-04T05:23:51.134Z,0
2023-02-04T05:24:51.097Z,0
2023-02-04T05:25:51.053Z,0
2023-02-04T05:26:51.031Z,0
2023-02-04T05:27:51.244Z,0
2023-02-04T05:28:50.983Z,0
2023-02-04T05:29:50.979Z,0
2023-02-04T05:30:51.156Z,0
2023-02-04T05:31:51.238Z,0
2023-02-04T05:32:50.841Z,0
2023-02-04T05:33:50.809Z,0
2023-02-04T05:34:50.802Z,0
2023-02-04T05:35:52.323Z,0
2023-02-04T05:36:50.744Z,0
2023-02-04T05:37:50.781Z,0
2023-02-04T05:38:50.653Z,0
2023-02-04T05:39:50.602Z,0
2023-02-04T05:40:50.566Z,0
2023-02-04T05:41:50.547Z,0
2023-02-04T05:42:50.494Z,0
2023-02-04T05:43:50.486Z,0
2023-02-04T05:44:50.486Z,0
2023-02-04T05:45:50.658Z,0
2023-02-04T05:46:50.391Z,0
2023-02-04T05:47:50.154Z,0
2023-02-04T05:48:50.313Z,0
2023-02-04T05:49:50.266Z,0
2023-02-04T05:50:50.279Z,0
2023-02-04T05:51:50.228Z,0
2023-02-04T05:52:50.170Z,0
2023-02-04T05:53:50.320Z,0
2023-02-04T05:54:50.116Z,0
2023-02-04T05:55:50.068Z,0
2023-02-04T05:56:50.038Z,0
2023-02-04T05:57:50.018Z,0
2023-02-04T05:58:50.011Z,0
2023-02-04T05:59:49.958Z,0
2023-02-04T06:00:49.952Z,0
2023-02-04T06:01:49.888Z,0
2023-02-04T06:02:49.854Z,0
2023-02-04T06:03:49.882Z,0
2023-02-04T06:04:51.943Z,0
2023-02-04T06:05:49.761Z,0
2023-02-04T06:06:49.748Z,0
2023-02-04T06:07:49.717Z,0
2023-02-04T06:08:49.656Z,0
2023-02-04T06:09:49.718Z,0
2023-02-04T06:10:49.370Z,0
2023-02-04T06:11:49.560Z,0
2023-02-04T06:12:49.543Z,0
2023-02-04T06:13:49.499Z,0
2023-02-04T06:14:49.454Z,0
2023-02-04T06:15:49.472Z,0
2023-02-04T06:16:49.788Z,0
2023-02-04T06:17:49.369Z,0
2023-02-04T06:18:49.333Z,0
2023-02-04T06:19:49.334Z,0
2023-02-04T06:20:49.280Z,0
2023-02-04T06:21:49.230Z,0
2023-02-04T06:22:49.223Z,0
2023-02-04T06:23:49.177Z,0
2023-02-04T06:24:51.946Z,0
2023-02-04T06:25:49.193Z,0
2023-02-04T06:26:49.067Z,0
2023-02-04T06:27:49.019Z,0
2023-02-04T06:28:49.007Z,0
2023-02-04T06:29:48.966Z,0
2023-02-04T06:30:49.451Z,0
2023-02-04T06:31:49.627Z,0
2023-02-04T06:32:48.646Z,0
2023-02-04T06:33:48.843Z,0
2023-02-04T06:34:48.812Z,0
2023-02-04T06:35:48.769Z,0
2023-02-04T06:36:48.768Z,0
2023-02-04T06:37:48.711Z,0
2023-02-04T06:38:48.702Z,0
2023-02-04T06:39:48.151Z,0
2023-02-04T06:40:48.649Z,0
2023-02-04T06:41:48.659Z,0
2023-02-04T06:42:48.567Z,0
2023-02-04T06:43:48.563Z,0
2023-02-04T06:44:48.510Z,0
2023-02-04T06:45:48.513Z,0
2023-02-04T06:46:48.434Z,0
2023-02-04T06:47:48.458Z,0
2023-02-04T06:48:48.365Z,0
2023-02-04T06:49:48.324Z,0
2023-02-04T06:50:48.373Z,0
2023-02-04T06:51:48.277Z,0
2023-02-04T06:52:48.230Z,0
2023-02-04T06:53:48.384Z,0
2023-02-04T06:54:48.203Z,0
2023-02-04T06:55:48.165Z,0
2023-02-04T06:56:48.135Z,0
2023-02-04T06:57:48.138Z,5
2023-02-04T06:58:48.027Z,5
2023-02-04T06:59:47.988Z,5
2023-02-04T07:00:47.979Z,5
2023-02-04T07:01:48.521Z,5
2023-02-04T07:02:48.230Z,5
2023-02-04T07:03:47.868Z,5
2023-02-04T07:04:50.102Z,5
2023-02-04T07:05:47.796Z,5
2023-02-04T07:06:47.784Z,5
2023-02-04T07:07:47.736Z,10
2023-02-04T07:08:47.716Z,10
2023-02-04T07:09:47.536Z,10
2023-02-04T07:10:47.664Z,10
2023-02-04T07:11:47.608Z,10
2023-02-04T07:12:47.607Z,15
2023-02-04T07:13:47.612Z,15
2023-02-04T07:14:47.527Z,15
2023-02-04T07:15:47.755Z,15
2023-02-04T07:16:47.447Z,15
2023-02-04T07:17:47.436Z,15
2023-02-04T07:18:47.386Z,20
2023-02-04T07:19:47.341Z,20
2023-02-04T07:20:47.321Z,20
2023-02-04T07:21:47.302Z,20
2023-02-04T07:22:47.320Z,25
2023-02-04T07:23:47.211Z,25
2023-02-04T07:24:47.230Z,25
2023-02-04T07:25:47.154Z,30
2023-02-04T07:26:47.154Z,30
2023-02-04T07:27:47.259Z,35
2023-02-04T07:28:47.092Z,40
2023-02-04T07:29:47.175Z,45
2023-02-04T07:30:47.615Z,50
2023-02-04T07:31:47.661Z,50
2023-02-04T07:32:47.002Z,55
2023-02-04T07:33:46.916Z,55
2023-02-04T07:34:46.864Z,55
2023-02-04T07:35:46.825Z,60
2023-02-04T07:36:47.060Z,60
2023-02-04T07:37:46.807Z,60
2023-02-04T07:38:46.720Z,60
2023-02-04T07:39:48.346Z,60
2023-02-04T07:40:47.295Z,60
2023-02-04T07:41:46.621Z,60
2023-02-04T07:42:46.684Z,60
2023-02-04T07:43:46.551Z,65
2023-02-04T07:44:46.556Z,65
2023-02-04T07:45:46.577Z,70
2023-02-04T07:46:46.564Z,70
2023-02-04T07:47:46.449Z,70
2023-02-04T07:48:46.395Z,70
2023-02-04T07:49:46.366Z,70
2023-02-04T07:50:46.331Z,75
2023-02-04T07:51:46.073Z,75
2023-02-04T07:52:46.288Z,80
2023-02-04T07:53:46.241Z,85
2023-02-04T07:54:46.307Z,85
2023-02-04T07:55:46.166Z,90
2023-02-04T07:56:46.141Z,95
2023-02-04T07:57:46.133Z,100
2023-02-04T07:58:46.099Z,110
2023-02-04T07:59:46.032Z,115
2023-02-04T08:00:46.038Z,120
2023-02-04T08:01:46.413Z,125
2023-02-04T08:02:45.942Z,125
2023-02-04T08:03:48.905Z,125
2023-02-04T08:04:45.670Z,130
2023-02-04T08:05:45.863Z,135
2023-02-04T08:06:45.813Z,135
2023-02-04T08:07:45.542Z,135
2023-02-04T08:08:45.532Z,130
2023-02-04T08:09:45.719Z,130
2023-02-04T08:10:45.688Z,130
2023-02-04T08:11:45.440Z,130
2023-02-04T08:12:45.643Z,130
2023-02-04T08:13:45.596Z,130
2023-02-04T08:14:45.597Z,130
2023-02-04T08:15:45.745Z,135
2023-02-04T08:16:45.548Z,135
2023-02-04T08:17:45.593Z,140
2023-02-04T08:18:45.439Z,145
2023-02-04T08:19:45.397Z,150
2023-02-04T08:20:45.363Z,155
2023-02-04T08:21:45.321Z,155
2023-02-04T08:22:45.314Z,150
2023-02-04T08:23:45.279Z,150
2023-02-04T08:24:45.241Z,150
2023-02-04T08:25:45.204Z,150
2023-02-04T08:26:45.193Z,150
2023-02-04T08:27:45.345Z,155
2023-02-04T08:28:45.126Z,155
2023-02-04T08:29:45.083Z,155
2023-02-04T08:30:45.396Z,155
2023-02-04T08:31:45.664Z,155
2023-02-04T08:32:44.775Z,155
2023-02-04T08:33:45.026Z,155
2023-02-04T08:34:44.949Z,150
2023-02-04T08:35:44.878Z,145
2023-02-04T08:36:44.874Z,145
2023-02-04T08:37:44.840Z,140
2023-02-04T08:38:45.798Z,140
2023-02-04T08:39:44.779Z,135
2023-02-04T08:40:44.758Z,135
2023-02-04T08:41:44.713Z,140
2023-02-04T08:42:44.677Z,155
2023-02-04T08:43:44.557Z,160
2023-02-04T08:44:44.364Z,165
2023-02-04T08:45:44.580Z,170
2023-02-04T08:46:45.043Z,175
2023-02-04T08:47:44.596Z,180
2023-02-04T08:48:44.533Z,190
2023-02-04T08:49:44.561Z,200
2023-02-04T08:50:46.249Z,205
2023-02-04T08:51:44.443Z,210
2023-02-04T08:52:44.385Z,210
2023-02-04T08:53:44.368Z,200
2023-02-04T08:54:44.309Z,195
2023-02-04T08:55:44.284Z,190
2023-02-04T08:56:46.582Z,190
2023-02-04T08:57:44.241Z,190
2023-02-04T08:58:44.210Z,190
2023-02-04T08:59:44.155Z,195
2023-02-04T09:00:44.916Z,210
2023-02-04T09:01:44.309Z,215
2023-02-04T09:02:44.252Z,225
2023-02-04T09:03:44.055Z,230
2023-02-04T09:04:44.033Z,235
2023-02-04T09:05:44.080Z,235
2023-02-04T09:06:43.717Z,240
2023-02-04T09:07:43.898Z,245
2023-02-04T09:08:43.907Z,240
2023-02-04T09:09:43.862Z,240
2023-02-04T09:10:43.970Z,245
2023-02-04T09:11:43.788Z,245
2023-02-04T09:12:43.779Z,240
2023-02-04T09:13:43.735Z,245
2023-02-04T09:14:43.697Z,250
2023-02-04T09:15:43.682Z,255
2023-02-04T09:16:44.015Z,260
2023-02-04T09:17:43.613Z,255
2023-02-04T09:18:43.634Z,260
2023-02-04T09:19:43.549Z,255
2023-02-04T09:20:43.935Z,255
2023-02-04T09:21:43.561Z,260
2023-02-04T09:22:43.445Z,270
2023-02-04T09:23:43.433Z,270
2023-02-04T09:24:43.389Z,270
2023-02-04T09:25:43.360Z,270
2023-02-04T09:26:43.378Z,270
2023-02-04T09:27:43.227Z,265
2023-02-04T09:28:43.280Z,260
2023-02-04T09:29:43.254Z,255
2023-02-04T09:30:43.886Z,260
2023-02-04T09:31:43.608Z,275
2023-02-04T09:32:43.149Z,290
2023-02-04T09:33:43.243Z,315
2023-02-04T09:34:43.121Z,340
2023-02-04T09:35:43.066Z,380
2023-02-04T09:36:43.058Z,395
2023-02-04T09:37:43.063Z,400
2023-02-04T09:38:42.960Z,380
2023-02-04T09:39:42.944Z,380
2023-02-04T09:40:43.102Z,375
2023-02-04T09:41:44.690Z,365
2023-02-04T09:42:42.831Z,365
2023-02-04T09:43:42.577Z,360
2023-02-04T09:44:42.779Z,360
2023-02-04T09:45:43.103Z,360
2023-02-04T09:46:42.719Z,360
2023-02-04T09:47:42.715Z,365
2023-02-04T09:48:42.685Z,395
2023-02-04T09:49:42.402Z,385
2023-02-04T09:50:43.350Z,390
2023-02-04T09:51:42.570Z,405
2023-02-04T09:52:42.554Z,375
2023-02-04T09:53:42.574Z,390
2023-02-04T09:54:42.485Z,390
2023-02-04T09:55:42.464Z,395
2023-02-04T09:56:42.482Z,405
2023-02-04T09:57:42.416Z,425
2023-02-04T09:58:42.357Z,430
2023-02-04T09:59:42.311Z,420
2023-02-04T10:00:42.839Z,410
2023-02-04T10:01:42.250Z,415
2023-02-04T10:02:42.225Z,405
2023-02-04T10:03:42.575Z,385
2023-02-04T10:04:42.177Z,375
2023-02-04T10:05:42.127Z,375
2023-02-04T10:06:42.165Z,385
2023-02-04T10:07:42.105Z,410
2023-02-04T10:08:42.087Z,435
2023-02-04T10:09:42.125Z,455
2023-02-04T10:10:42.443Z,465
2023-02-04T10:11:41.952Z,450
2023-02-04T10:12:41.946Z,440
2023-02-04T10:13:41.696Z,420
2023-02-04T10:14:41.868Z,415
2023-02-04T10:15:41.837Z,435
2023-02-04T10:16:42.234Z,495
2023-02-04T10:17:41.829Z,495
2023-02-04T10:18:41.763Z,460
2023-02-04T10:19:41.722Z,415
2023-02-04T10:20:42.147Z,390
2023-02-04T10:21:41.883Z,340
2023-02-04T10:22:41.771Z,315
2023-02-04T10:23:41.616Z,280
2023-02-04T10:24:41.608Z,270
2023-02-04T10:25:41.631Z,265
2023-02-04T10:26:41.535Z,260
2023-02-04T10:27:41.595Z,265
2023-02-04T10:28:41.463Z,260
2023-02-04T10:29:41.427Z,245
2023-02-04T10:30:43.051Z,230
2023-02-04T10:31:42.472Z,210
2023-02-04T10:32:41.347Z,195
2023-02-04T10:33:41.325Z,200
2023-02-04T10:34:41.312Z,190
2023-02-04T10:35:41.254Z,200
2023-02-04T10:36:41.241Z,215
2023-02-04T10:37:41.238Z,240
2023-02-04T10:38:41.195Z,260
2023-02-04T10:39:41.167Z,260
2023-02-04T10:40:42.144Z,265
2023-02-04T10:41:41.294Z,280
2023-02-04T10:42:41.092Z,285
2023-02-04T10:43:41.047Z,295
2023-02-04T10:44:41.039Z,300
2023-02-04T10:45:40.991Z,310
2023-02-04T10:46:40.986Z,320
2023-02-04T10:47:41.276Z,345
2023-02-04T10:48:40.880Z,375
2023-02-04T10:49:40.843Z,400
2023-02-04T10:50:41.579Z,415
2023-02-04T10:51:40.794Z,410
2023-02-04T10:52:40.766Z,395
2023-02-04T10:53:40.792Z,380
2023-02-04T10:54:40.744Z,380
2023-02-04T10:55:40.677Z,385
2023-02-04T10:56:40.467Z,400
2023-02-04T10:57:40.695Z,420
2023-02-04T10:58:40.343Z,430
2023-02-04T10:59:40.570Z,415
2023-02-04T11:00:41.362Z,425
2023-02-04T11:01:40.802Z,435
2023-02-04T11:02:40.485Z,455
2023-02-04T11:03:40.753Z,465
2023-02-04T11:04:40.487Z,485
2023-02-04T11:05:40.495Z,485
2023-02-04T11:06:40.361Z,485
2023-02-04T11:07:40.335Z,490
2023-02-04T11:08:40.299Z,495
2023-02-04T11:09:40.261Z,505
2023-02-04T11:10:41.482Z,510
2023-02-04T11:11:40.204Z,510
2023-02-04T11:12:40.195Z,515
2023-02-04T11:13:40.216Z,520
2023-02-04T11:14:40.128Z,515
2023-02-04T11:15:40.532Z,510
2023-02-04T11:16:40.242Z,490
2023-02-04T11:17:40.037Z,455
2023-02-04T11:18:40.029Z,410
2023-02-04T11:19:40.037Z,380
2023-02-04T11:20:41.009Z,355
2023-02-04T11:21:39.709Z,350
2023-02-04T11:22:39.949Z,350
2023-02-04T11:23:39.881Z,365
2023-02-04T11:24:39.877Z,380
2023-02-04T11:25:40.987Z,375
2023-02-04T11:26:39.585Z,365
2023-02-04T11:27:39.796Z,335
2023-02-04T11:28:39.752Z,315
2023-02-04T11:29:39.769Z,295
2023-02-04T11:30:39.771Z,280
2023-02-04T11:31:40.612Z,280
2023-02-04T11:32:39.589Z,275
2023-02-04T11:33:39.587Z,270
2023-02-04T11:34:39.568Z,265
2023-02-04T11:35:40.407Z,265
2023-02-04T11:36:39.500Z,280
2023-02-04T11:37:39.465Z,290
2023-02-04T11:38:39.429Z,315
2023-02-04T11:39:39.425Z,340
2023-02-04T11:40:39.375Z,360
2023-02-04T11:41:39.400Z,380
2023-02-04T11:42:39.343Z,390
2023-02-04T11:43:39.283Z,395
2023-02-04T11:44:39.306Z,390
2023-02-04T11:45:40.392Z,385
2023-02-04T11:46:39.399Z,380
2023-02-04T11:47:39.183Z,380
2023-02-04T11:48:39.163Z,385
2023-02-04T11:49:39.129Z,390
2023-02-04T11:50:38.841Z,390
2023-02-04T11:51:39.083Z,385
2023-02-04T11:52:39.099Z,390
2023-02-04T11:53:39.075Z,390
2023-02-04T11:54:38.991Z,395
2023-02-04T11:55:39.682Z,400
2023-02-04T11:56:38.944Z,405
2023-02-04T11:57:38.901Z,415
2023-02-04T11:58:39.070Z,410
2023-02-04T11:59:38.838Z,410
2023-02-04T12:00:38.881Z,410
2023-02-04T12:01:38.866Z,410
2023-02-04T12:02:39.028Z,410
2023-02-04T12:03:39.008Z,405
2023-02-04T12:04:38.678Z,405
2023-02-04T12:05:39.274Z,405
2023-02-04T12:06:38.645Z,395
2023-02-04T12:07:38.790Z,395
2023-02-04T12:08:38.900Z,400
2023-02-04T12:09:38.545Z,405
2023-02-04T12:10:38.536Z,405
2023-02-04T12:11:38.488Z,410
2023-02-04T12:12:38.455Z,420
2023-02-04T12:13:40.260Z,440
2023-02-04T12:14:38.412Z,450
2023-02-04T12:15:39.394Z,435
2023-02-04T12:16:38.408Z,425
2023-02-04T12:17:38.383Z,430
2023-02-04T12:18:38.311Z,395
2023-02-04T12:19:38.253Z,380
2023-02-04T12:20:38.376Z,375
2023-02-04T12:21:38.182Z,380
2023-02-04T12:22:38.174Z,385
2023-02-04T12:23:38.168Z,385
2023-02-04T12:24:38.114Z,390
2023-02-04T12:25:39.028Z,390
2023-02-04T12:26:38.077Z,385
2023-02-04T12:27:38.026Z,380
2023-02-04T12:28:38.000Z,380
2023-02-04T12:29:37.792Z,380
2023-02-04T12:30:38.075Z,390
2023-02-04T12:31:38.516Z,385
2023-02-04T12:32:37.900Z,380
2023-02-04T12:33:38.033Z,395
2023-02-04T12:34:37.820Z,405
2023-02-04T12:35:38.500Z,410
2023-02-04T12:36:37.767Z,415
2023-02-04T12:37:37.822Z,400
2023-02-04T12:38:37.728Z,385
2023-02-04T12:39:37.698Z,375
2023-02-04T12:40:37.661Z,360
2023-02-04T12:41:37.672Z,350
2023-02-04T12:42:37.638Z,350
2023-02-04T12:43:38.008Z,365
2023-02-04T12:44:37.551Z,370
2023-02-04T12:45:38.543Z,370
2023-02-04T12:46:37.714Z,365
2023-02-04T12:47:37.452Z,350
2023-02-04T12:48:37.793Z,340
2023-02-04T12:49:37.505Z,330
2023-02-04T12:50:37.363Z,320
2023-02-04T12:51:37.348Z,310
2023-02-04T12:52:37.131Z,315
2023-02-04T12:53:37.042Z,315
2023-02-04T12:54:37.249Z,315
2023-02-04T12:55:38.152Z,320
2023-02-04T12:56:37.196Z,325
2023-02-04T12:57:37.193Z,335
2023-02-04T12:58:37.131Z,350
2023-02-04T12:59:37.125Z,345
2023-02-04T13:00:37.756Z,345
2023-02-04T13:01:37.191Z,345
2023-02-04T13:02:37.030Z,345
2023-02-04T13:03:37.039Z,340
2023-02-04T13:04:36.984Z,340
2023-02-04T13:05:37.645Z,345
2023-02-04T13:06:36.922Z,345
2023-02-04T13:07:36.957Z,340
2023-02-04T13:08:36.852Z,340
2023-02-04T13:09:36.596Z,350
2023-02-04T13:10:36.787Z,360
2023-02-04T13:11:36.862Z,360
2023-02-04T13:12:36.736Z,360
2023-02-04T13:13:36.728Z,365
2023-02-04T13:14:36.787Z,365
2023-02-04T13:15:37.507Z,365
2023-02-04T13:16:36.702Z,365
2023-02-04T13:17:36.393Z,360
2023-02-04T13:18:36.575Z,360
2023-02-04T13:19:36.528Z,355
2023-02-04T13:20:36.531Z,355
2023-02-04T13:21:36.646Z,345
2023-02-04T13:22:36.509Z,335
2023-02-04T13:23:36.454Z,310
2023-02-04T13:24:36.382Z,295
2023-02-04T13:25:37.322Z,285
2023-02-04T13:26:36.341Z,290
2023-02-04T13:27:36.300Z,290
2023-02-04T13:28:36.282Z,285
2023-02-04T13:29:36.282Z,275
2023-02-04T13:30:36.427Z,270
2023-02-04T13:31:36.648Z,265
2023-02-04T13:32:36.159Z,265
2023-02-04T13:33:36.160Z,260
2023-02-04T13:34:36.100Z,260
2023-02-04T13:35:37.086Z,265
2023-02-04T13:36:36.085Z,265
2023-02-04T13:37:36.166Z,270
2023-02-04T13:38:36.008Z,270
2023-02-04T13:39:35.965Z,270
2023-02-04T13:40:35.935Z,275
2023-02-04T13:41:35.932Z,285
2023-02-04T13:42:35.894Z,285
2023-02-04T13:43:35.840Z,290
2023-02-04T13:44:35.891Z,300
2023-02-04T13:45:37.232Z,295
2023-02-04T13:46:35.811Z,295
2023-02-04T13:47:35.746Z,300
2023-02-04T13:48:36.779Z,305
2023-02-04T13:49:35.723Z,305
2023-02-04T13:50:36.532Z,305
2023-02-04T13:51:35.637Z,305
2023-02-04T13:52:35.677Z,305
2023-02-04T13:53:35.688Z,310
2023-02-04T13:54:36.770Z,310
2023-02-04T13:55:36.503Z,300
2023-02-04T13:56:35.475Z,285
2023-02-04T13:57:35.454Z,275
2023-02-04T13:58:35.175Z,280
2023-02-04T13:59:35.376Z,290
2023-02-04T14:00:36.573Z,300
2023-02-04T14:01:35.439Z,300
2023-02-04T14:02:35.573Z,305
2023-02-04T14:03:35.282Z,305
2023-02-04T14:04:36.860Z,305
2023-02-04T14:05:35.229Z,305
2023-02-04T14:06:35.174Z,305
2023-02-04T14:07:35.143Z,300
2023-02-04T14:08:34.919Z,295
2023-02-04T14:09:35.284Z,295
2023-02-04T14:10:38.265Z,285
2023-02-04T14:11:35.036Z,275
2023-02-04T14:12:35.008Z,265
2023-02-04T14:13:34.966Z,255
2023-02-04T14:14:34.702Z,255
2023-02-04T14:15:34.684Z,250
2023-02-04T14:16:37.726Z,240